createdAt,value
2022-07-26T00:00:28.840Z,23.38
2022-07-26T00:02:56.647Z,23.35
2022-07-26T00:05:26.744Z,23.33
2022-07-26T00:08:09.884Z,23.34
2022-07-26T00:10:40.580Z,23.33
2022-07-26T00:13:08.905Z,23.30
2022-07-26T00:15:37.518Z,23.29
2022-07-26T00:18:12.102Z,23.27
2022-07-26T00:20:41.459Z,23.23
2022-07-26T00:23:10.250Z,23.22
2022-07-26T00:25:38.989Z,23.21
2022-07-26T00:28:07.582Z,23.19
2022-07-26T00:30:37.877Z,23.19
2022-07-26T00:33:08.806Z,23.17
2022-07-26T00:35:38.122Z,23.17
2022-07-26T00:38:07.206Z,23.16
2022-07-26T00:40:36.827Z,23.16
2022-07-26T00:43:04.994Z,23.16
2022-07-26T00:45:32.948Z,23.16
2022-07-26T00:48:00.950Z,23.17
2022-07-26T00:50:29.584Z,23.17
2022-07-26T00:52:57.750Z,23.13
2022-07-26T00:55:25.769Z,23.04
2022-07-26T00:57:53.816Z,23.02
2022-07-26T01:00:25.820Z,23.01
2022-07-26T01:02:55.088Z,23.00
2022-07-26T01:05:24.305Z,22.99
2022-07-26T01:07:52.478Z,22.96
2022-07-26T01:10:20.746Z,22.92
2022-07-26T01:12:48.551Z,22.88
2022-07-26T01:15:17.308Z,22.76
2022-07-26T01:17:45.713Z,22.67
2022-07-26T01:20:14.377Z,22.60
2022-07-26T01:22:42.986Z,22.55
2022-07-26T01:25:11.219Z,22.56
2022-07-26T01:27:39.013Z,22.59
2022-07-26T01:30:10.650Z,22.62
2022-07-26T01:32:38.725Z,22.61
2022-07-26T01:35:09.004Z,22.60
2022-07-26T01:37:36.565Z,22.60
2022-07-26T01:40:05.674Z,22.60
2022-07-26T01:42:34.805Z,22.59
2022-07-26T01:45:02.900Z,22.53
2022-07-26T01:47:32.089Z,22.55
2022-07-26T01:50:00.160Z,22.58
2022-07-26T01:52:27.850Z,22.58
2022-07-26T01:54:55.516Z,22.59
2022-07-26T01:57:25.292Z,22.60
2022-07-26T01:59:52.841Z,22.60
2022-07-26T02:02:20.586Z,22.52
2022-07-26T02:05:01.430Z,22.50
2022-07-26T02:07:31.628Z,22.49
2022-07-26T02:10:01.624Z,22.45
2022-07-26T02:12:29.583Z,22.41
2022-07-26T02:14:57.418Z,22.36
2022-07-26T02:17:25.489Z,22.22
2022-07-26T02:19:53.219Z,22.16
2022-07-26T02:22:20.934Z,22.14
2022-07-26T02:24:48.978Z,22.09
2022-07-26T02:27:17.347Z,22.05
2022-07-26T02:29:45.026Z,21.95
2022-07-26T02:32:13.453Z,21.87
2022-07-26T02:34:41.050Z,21.77
2022-07-26T02:37:09.401Z,21.68
2022-07-26T02:39:37.145Z,21.62
2022-07-26T02:42:04.960Z,21.57
2022-07-26T02:44:34.261Z,21.53
2022-07-26T02:47:01.840Z,21.49
2022-07-26T02:49:29.630Z,21.47
2022-07-26T02:51:57.240Z,21.45
2022-07-26T02:54:24.828Z,21.44
2022-07-26T02:56:52.555Z,21.39
2022-07-26T02:59:20.107Z,21.33
2022-07-26T03:01:47.974Z,21.28
2022-07-26T03:04:15.625Z,21.24
2022-07-26T03:06:43.833Z,21.21
2022-07-26T03:09:11.500Z,21.17
2022-07-26T03:11:39.159Z,21.10
2022-07-26T03:14:09.016Z,21.06
2022-07-26T03:16:37.469Z,21.03
2022-07-26T03:19:05.099Z,20.99
2022-07-26T03:21:32.791Z,20.95
2022-07-26T03:24:00.357Z,20.92
2022-07-26T03:26:28.634Z,20.90
2022-07-26T03:28:56.225Z,20.88
2022-07-26T03:31:25.114Z,20.86
2022-07-26T03:33:52.709Z,20.87
2022-07-26T03:36:20.386Z,20.87
2022-07-26T03:38:48.049Z,20.88
2022-07-26T03:41:15.632Z,20.90
2022-07-26T03:43:43.224Z,20.93
2022-07-26T03:46:11.227Z,20.95
2022-07-26T03:48:39.020Z,20.98
2022-07-26T03:51:07.283Z,21.00
2022-07-26T03:53:34.866Z,21.02
2022-07-26T03:56:21.242Z,21.03
2022-07-26T03:58:48.806Z,21.04
2022-07-26T04:01:16.452Z,21.04
2022-07-26T04:03:47.569Z,21.06
2022-07-26T04:06:16.057Z,21.07
2022-07-26T04:08:43.941Z,21.09
2022-07-26T04:11:11.583Z,21.10
2022-07-26T04:13:39.354Z,21.11
2022-07-26T04:16:07.879Z,21.11
2022-07-26T04:18:35.560Z,21.08
2022-07-26T04:21:03.917Z,21.06
2022-07-26T04:23:31.528Z,21.05
2022-07-26T04:25:59.088Z,21.04
2022-07-26T04:28:28.373Z,21.03
2022-07-26T04:30:56.198Z,21.02
2022-07-26T04:33:24.275Z,21.01
2022-07-26T04:35:53.295Z,21.02
2022-07-26T04:38:21.918Z,21.03
2022-07-26T04:40:51.195Z,21.04
2022-07-26T04:43:19.062Z,21.03
2022-07-26T04:45:48.198Z,21.03
2022-07-26T04:48:16.077Z,21.04
2022-07-26T04:50:44.389Z,21.05
2022-07-26T04:53:12.118Z,21.06
2022-07-26T04:55:39.810Z,21.06
2022-07-26T04:58:07.959Z,21.06
2022-07-26T05:00:56.565Z,21.05
2022-07-26T05:03:24.443Z,21.05
2022-07-26T05:05:52.343Z,21.06
2022-07-26T05:08:20.420Z,21.10
2022-07-26T05:10:53.129Z,21.17
2022-07-26T05:13:27.094Z,21.23
2022-07-26T05:15:59.029Z,21.30
2022-07-26T05:18:27.192Z,21.34
2022-07-26T05:20:57.392Z,21.36
2022-07-26T05:23:24.994Z,21.39
2022-07-26T05:25:52.632Z,21.39
2022-07-26T05:28:22.610Z,21.41
2022-07-26T05:30:50.810Z,21.41
2022-07-26T05:33:18.523Z,21.44
2022-07-26T05:35:46.255Z,21.42
2022-07-26T05:38:13.851Z,21.40
2022-07-26T05:40:41.336Z,21.42
2022-07-26T05:43:09.003Z,21.45
2022-07-26T05:45:36.706Z,21.49
2022-07-26T05:48:04.859Z,21.51
2022-07-26T05:50:32.540Z,21.49
2022-07-26T05:53:02.673Z,21.49
2022-07-26T05:55:30.277Z,21.50
2022-07-26T05:57:57.856Z,21.47
2022-07-26T06:00:26.900Z,21.46
2022-07-26T06:02:54.830Z,21.44
2022-07-26T06:05:22.413Z,21.46
2022-07-26T06:07:50.802Z,21.46
2022-07-26T06:10:18.459Z,21.45
2022-07-26T06:12:46.070Z,21.48
2022-07-26T06:15:16.041Z,21.48
2022-07-26T06:17:44.104Z,21.48
2022-07-26T06:20:12.537Z,21.47
2022-07-26T06:22:40.105Z,21.49
2022-07-26T06:25:08.998Z,21.51
2022-07-26T06:27:36.566Z,21.54
2022-07-26T06:30:05.122Z,21.55
2022-07-26T06:32:32.581Z,21.60
2022-07-26T06:35:00.172Z,21.65
2022-07-26T06:37:27.760Z,21.68
2022-07-26T06:39:55.311Z,21.72
2022-07-26T06:42:22.890Z,21.80
2022-07-26T06:44:50.381Z,21.87
2022-07-26T06:47:18.091Z,21.90
2022-07-26T06:49:45.780Z,21.87
2022-07-26T06:52:13.288Z,21.88
2022-07-26T06:54:40.851Z,21.91
2022-07-26T06:57:08.518Z,21.93
2022-07-26T06:59:36.862Z,21.94
2022-07-26T07:02:05.244Z,21.96
2022-07-26T07:04:33.815Z,21.95
2022-07-26T07:07:04.513Z,21.94
2022-07-26T07:09:33.227Z,21.94
2022-07-26T07:12:08.438Z,21.92
2022-07-26T07:14:38.758Z,21.93
2022-07-26T07:17:13.016Z,21.93
2022-07-26T07:19:41.626Z,21.95
2022-07-26T07:22:11.069Z,22.01
2022-07-26T07:24:38.562Z,22.04
2022-07-26T07:27:06.701Z,22.10
2022-07-26T07:29:34.743Z,22.17
2022-07-26T07:32:03.349Z,22.20
2022-07-26T07:34:31.296Z,22.22
2022-07-26T07:36:59.036Z,22.25
2022-07-26T07:39:34.584Z,22.28
2022-07-26T07:42:06.640Z,22.30
2022-07-26T07:44:34.282Z,22.32
2022-07-26T07:47:02.023Z,22.35
2022-07-26T07:49:29.845Z,22.39
2022-07-26T07:51:57.348Z,22.41
2022-07-26T07:54:25.058Z,22.47
2022-07-26T07:56:55.622Z,22.48
2022-07-26T07:59:23.570Z,22.50
2022-07-26T08:01:51.275Z,22.50
2022-07-26T08:04:19.225Z,22.50
2022-07-26T08:06:50.359Z,22.53
2022-07-26T08:09:19.638Z,22.59
2022-07-26T08:11:51.124Z,22.64
2022-07-26T08:14:19.314Z,22.70
2022-07-26T08:16:47.222Z,22.70
2022-07-26T08:19:15.759Z,22.66
2022-07-26T08:21:45.429Z,22.69
2022-07-26T08:24:14.711Z,22.74
2022-07-26T08:26:42.279Z,22.79
2022-07-26T08:29:10.058Z,22.79
2022-07-26T08:31:37.913Z,22.84
2022-07-26T08:34:05.548Z,22.85
2022-07-26T08:36:33.331Z,22.85
2022-07-26T08:39:01.128Z,22.93
2022-07-26T08:41:30.231Z,22.99
2022-07-26T08:44:06.460Z,23.08
2022-07-26T08:46:36.760Z,23.09
2022-07-26T08:49:06.591Z,23.08
2022-07-26T08:51:37.235Z,23.12
2022-07-26T08:54:06.206Z,23.10
2022-07-26T08:56:35.955Z,23.11
2022-07-26T08:59:05.834Z,23.15
2022-07-26T09:01:34.031Z,23.14
2022-07-26T09:04:31.082Z,23.11
2022-07-26T09:07:03.644Z,23.18
2022-07-26T09:09:32.167Z,23.21
2022-07-26T09:12:12.415Z,23.25
2022-07-26T09:14:40.272Z,23.36
2022-07-26T09:17:08.045Z,23.45
2022-07-26T09:19:36.110Z,23.52
2022-07-26T09:22:10.611Z,23.54
2022-07-26T09:24:40.906Z,23.57
2022-07-26T09:27:10.805Z,23.61
2022-07-26T09:29:49.893Z,23.55
2022-07-26T09:32:19.924Z,23.40
2022-07-26T09:34:57.854Z,23.40
2022-07-26T09:37:37.233Z,23.46
2022-07-26T09:40:08.889Z,23.53
2022-07-26T09:42:36.964Z,23.52
2022-07-26T09:45:16.247Z,23.54
2022-07-26T09:47:43.938Z,23.63
2022-07-26T09:50:14.334Z,23.68
2022-07-26T09:52:58.541Z,23.75
2022-07-26T09:55:27.468Z,23.83
2022-07-26T09:57:59.226Z,23.90
2022-07-26T10:00:26.783Z,23.96
2022-07-26T10:02:54.394Z,24.00
2022-07-26T10:05:22.296Z,23.93
2022-07-26T10:07:51.435Z,23.89
2022-07-26T10:10:24.739Z,23.93
2022-07-26T10:12:53.801Z,23.93
2022-07-26T10:15:40.526Z,23.94
2022-07-26T10:18:09.422Z,23.94
2022-07-26T10:20:47.567Z,23.95
2022-07-26T10:23:41.195Z,23.95
2022-07-26T10:26:13.207Z,23.96
2022-07-26T10:28:41.456Z,23.98
2022-07-26T10:31:29.817Z,24.05
2022-07-26T10:34:00.122Z,24.15
2022-07-26T10:36:30.798Z,24.20
2022-07-26T10:39:10.809Z,24.20
2022-07-26T10:41:46.561Z,24.17
2022-07-26T10:44:19.942Z,24.20
2022-07-26T10:47:02.339Z,24.22
2022-07-26T10:49:34.886Z,24.09
2022-07-26T10:52:15.394Z,24.03
2022-07-26T10:55:19.353Z,24.05
2022-07-26T10:57:48.838Z,24.16
2022-07-26T11:00:23.161Z,24.17
2022-07-26T11:02:55.417Z,24.25
2022-07-26T11:05:28.111Z,24.33
2022-07-26T11:08:00.896Z,24.40
2022-07-26T11:10:30.795Z,24.50
2022-07-26T11:13:06.428Z,24.58
2022-07-26T11:15:35.034Z,24.65
2022-07-26T11:18:17.593Z,24.70
2022-07-26T11:20:47.324Z,24.69
2022-07-26T11:23:23.537Z,24.68
2022-07-26T11:26:15.208Z,24.66
2022-07-26T11:28:57.769Z,24.66
2022-07-26T11:31:51.137Z,24.71
2022-07-26T11:34:23.218Z,24.76
2022-07-26T11:36:52.753Z,24.79
2022-07-26T11:39:24.008Z,24.81
2022-07-26T11:41:56.444Z,24.83
2022-07-26T11:44:24.975Z,24.87
2022-07-26T11:46:53.121Z,24.91
2022-07-26T11:49:25.079Z,24.94
2022-07-26T11:52:00.530Z,25.00
2022-07-26T11:54:30.311Z,25.03
2022-07-26T11:56:59.847Z,25.03
2022-07-26T11:59:29.186Z,25.00
2022-07-26T12:01:58.236Z,24.85
2022-07-26T12:04:28.813Z,24.67
2022-07-26T12:06:58.263Z,24.68
2022-07-26T12:09:31.725Z,24.69
2022-07-26T12:11:59.490Z,24.71
2022-07-26T12:14:28.487Z,24.74
2022-07-26T12:16:56.495Z,24.74
2022-07-26T12:19:27.743Z,24.72
2022-07-26T12:21:58.316Z,24.68
2022-07-26T12:24:40.927Z,24.66
2022-07-26T12:27:11.229Z,24.64
2022-07-26T12:29:40.356Z,24.65
2022-07-26T12:32:12.796Z,24.65
2022-07-26T12:34:42.348Z,24.63
2022-07-26T12:37:12.496Z,24.61
2022-07-26T12:39:41.253Z,24.57
2022-07-26T12:42:22.856Z,24.50
2022-07-26T12:45:01.959Z,24.46
2022-07-26T12:47:29.905Z,24.42
2022-07-26T12:49:57.463Z,24.40
2022-07-26T12:52:25.231Z,24.37
2022-07-26T12:54:53.364Z,24.32
2022-07-26T12:57:22.075Z,24.27
2022-07-26T12:59:50.198Z,24.27
2022-07-26T13:02:19.127Z,24.27
2022-07-26T13:04:47.209Z,24.22
2022-07-26T13:07:15.546Z,24.20
2022-07-26T13:09:43.929Z,24.24
2022-07-26T13:12:12.658Z,24.26
2022-07-26T13:14:40.906Z,24.28
2022-07-26T13:17:10.362Z,24.25
2022-07-26T13:19:38.795Z,24.26
2022-07-26T13:22:07.553Z,24.24
2022-07-26T13:24:38.603Z,24.18
2022-07-26T13:27:07.164Z,24.11
2022-07-26T13:29:36.411Z,24.08
2022-07-26T13:32:04.606Z,24.09
2022-07-26T13:34:35.029Z,24.07
2022-07-26T13:37:08.277Z,24.03
2022-07-26T13:39:36.243Z,24.00
2022-07-26T13:42:04.434Z,23.98
2022-07-26T13:44:32.495Z,23.97
2022-07-26T13:47:01.503Z,23.94
2022-07-26T13:49:29.645Z,23.92
2022-07-26T13:51:57.396Z,23.93
2022-07-26T13:54:27.680Z,24.01
2022-07-26T13:56:55.510Z,24.07
2022-07-26T13:59:23.553Z,24.08
2022-07-26T14:01:52.242Z,24.11
2022-07-26T14:04:20.317Z,24.18
2022-07-26T14:06:48.270Z,24.30
2022-07-26T14:09:17.169Z,24.46
2022-07-26T14:11:45.097Z,24.74
2022-07-26T14:14:13.799Z,24.99
2022-07-26T14:16:41.886Z,25.34
2022-07-26T14:19:09.527Z,25.65
2022-07-26T14:21:43.424Z,26.00
2022-07-26T14:24:15.177Z,26.45
2022-07-26T14:26:46.024Z,26.94
2022-07-26T14:29:15.389Z,27.48
2022-07-26T14:31:44.153Z,27.95
2022-07-26T14:34:12.169Z,28.42
2022-07-26T14:36:40.476Z,28.94
2022-07-26T14:39:08.435Z,29.43
2022-07-26T14:41:36.100Z,29.84
2022-07-26T14:44:04.288Z,30.22
2022-07-26T14:46:31.870Z,30.58
2022-07-26T14:48:59.445Z,30.80
2022-07-26T14:51:27.264Z,30.72
2022-07-26T14:53:54.848Z,30.59
2022-07-26T14:56:22.676Z,30.50
2022-07-26T14:58:50.500Z,30.46
2022-07-26T15:01:18.172Z,30.90
2022-07-26T15:03:45.761Z,31.55
2022-07-26T15:06:13.265Z,32.20
2022-07-26T15:08:40.870Z,32.46
2022-07-26T15:11:08.500Z,32.08
2022-07-26T15:13:36.322Z,31.68
2022-07-26T15:16:04.566Z,31.31
2022-07-26T15:18:32.984Z,31.00
2022-07-26T15:21:01.784Z,30.61
2022-07-26T15:23:29.729Z,30.16
2022-07-26T15:25:57.375Z,29.77
2022-07-26T15:28:24.848Z,29.36
2022-07-26T15:30:52.436Z,29.05
2022-07-26T15:33:20.050Z,29.02
2022-07-26T15:35:48.858Z,28.94
2022-07-26T15:38:16.425Z,28.91
2022-07-26T15:40:43.993Z,28.88
2022-07-26T15:43:11.644Z,28.83
2022-07-26T15:45:42.091Z,28.76
2022-07-26T15:48:16.005Z,28.64
2022-07-26T15:50:45.245Z,28.68
2022-07-26T15:53:15.467Z,28.66
2022-07-26T15:55:43.150Z,28.59
2022-07-26T15:58:13.705Z,28.47
2022-07-26T16:00:41.878Z,28.40
2022-07-26T16:03:10.947Z,28.31
2022-07-26T16:05:38.529Z,28.20
2022-07-26T16:08:06.721Z,28.10
2022-07-26T16:10:34.214Z,28.00
2022-07-26T16:13:01.828Z,27.87
2022-07-26T16:15:29.544Z,27.85
2022-07-26T16:17:57.253Z,27.76
2022-07-26T16:20:24.987Z,27.72
2022-07-26T16:22:52.610Z,27.74
2022-07-26T16:25:20.161Z,27.72
2022-07-26T16:27:48.677Z,27.66
2022-07-26T16:30:16.724Z,27.57
2022-07-26T16:32:44.284Z,27.53
2022-07-26T16:35:12.701Z,27.46
2022-07-26T16:37:40.971Z,27.34
2022-07-26T16:40:11.063Z,27.23
2022-07-26T16:42:38.822Z,27.14
2022-07-26T16:45:08.552Z,27.02
2022-07-26T16:47:36.279Z,26.91
2022-07-26T16:50:04.331Z,26.78
2022-07-26T16:52:31.903Z,26.63
2022-07-26T16:54:59.502Z,26.53
2022-07-26T16:57:27.619Z,26.47
2022-07-26T16:59:55.369Z,26.41
2022-07-26T17:02:23.069Z,26.36
2022-07-26T17:04:51.498Z,26.28
2022-07-26T17:07:26.476Z,26.21
2022-07-26T17:09:55.531Z,26.16
2022-07-26T17:12:23.511Z,26.12
2022-07-26T17:14:51.449Z,26.09
2022-07-26T17:17:19.076Z,26.01
2022-07-26T17:19:46.732Z,25.91
2022-07-26T17:22:14.285Z,25.64
2022-07-26T17:24:41.864Z,25.36
2022-07-26T17:27:09.709Z,25.17
2022-07-26T17:29:37.365Z,25.01
2022-07-26T17:32:06.702Z,24.89
2022-07-26T17:34:34.323Z,24.79
2022-07-26T17:37:05.729Z,24.74
2022-07-26T17:39:52.483Z,24.70
2022-07-26T17:42:21.536Z,24.65
2022-07-26T17:44:49.502Z,24.62
2022-07-26T17:47:27.747Z,24.57
2022-07-26T17:52:48.886Z,24.43
2022-07-26T17:55:17.716Z,24.40
2022-07-26T17:57:45.807Z,24.36
2022-07-26T18:00:15.563Z,24.37
2022-07-26T18:02:43.277Z,24.39
2022-07-26T18:05:11.563Z,24.41
2022-07-26T18:07:39.751Z,24.42
2022-07-26T18:10:10.536Z,24.42
2022-07-26T18:12:38.775Z,24.41
2022-07-26T18:15:08.625Z,24.37
2022-07-26T18:17:36.415Z,24.36
2022-07-26T18:20:05.940Z,24.34
2022-07-26T18:22:33.599Z,24.32
2022-07-26T18:25:01.334Z,24.29
2022-07-26T18:27:29.075Z,24.27
2022-07-26T18:29:58.570Z,24.24
2022-07-26T18:32:26.515Z,24.20
2022-07-26T18:34:55.711Z,24.15
2022-07-26T18:37:23.262Z,24.11
2022-07-26T18:39:57.002Z,24.06
2022-07-26T18:42:25.511Z,24.00
2022-07-26T18:44:53.197Z,23.95
2022-07-26T18:47:21.417Z,23.90
2022-07-26T18:49:49.019Z,23.84
2022-07-26T18:52:28.526Z,23.79
2022-07-26T18:55:06.420Z,23.74
2022-07-26T18:57:35.054Z,23.67
2022-07-26T19:00:03.262Z,23.63
2022-07-26T19:02:32.114Z,23.57
2022-07-26T19:05:00.008Z,23.51
2022-07-26T19:07:27.652Z,23.44
2022-07-26T19:09:58.540Z,23.38
2022-07-26T19:12:27.190Z,23.31
2022-07-26T19:14:55.246Z,23.22
2022-07-26T19:17:23.137Z,23.17
2022-07-26T19:19:50.723Z,23.10
2022-07-26T19:22:19.429Z,22.87
2022-07-26T19:24:48.503Z,22.55
2022-07-26T19:27:16.839Z,22.26
2022-07-26T19:29:45.095Z,22.03
2022-07-26T19:32:12.726Z,21.86
2022-07-26T19:34:40.657Z,21.72
2022-07-26T19:37:08.347Z,21.59
2022-07-26T19:39:35.961Z,21.48
2022-07-26T19:42:03.810Z,21.39
2022-07-26T19:44:31.663Z,21.30
2022-07-26T19:46:59.749Z,21.24
2022-07-26T19:49:28.157Z,21.17
2022-07-26T19:51:59.156Z,21.10
2022-07-26T19:54:30.024Z,21.03
2022-07-26T19:56:58.256Z,20.96
2022-07-26T19:59:25.932Z,20.93
2022-07-26T20:01:54.599Z,20.88
2022-07-26T20:04:24.610Z,20.84
2022-07-26T20:06:52.201Z,20.78
2022-07-26T20:09:19.814Z,20.73
2022-07-26T20:11:50.207Z,20.66
2022-07-26T20:14:18.010Z,20.62
2022-07-26T20:16:45.764Z,20.64
2022-07-26T20:19:13.768Z,20.66
2022-07-26T20:21:44.117Z,20.64
2022-07-26T20:24:11.802Z,20.61
2022-07-26T20:26:39.339Z,20.56
2022-07-26T20:29:07.742Z,20.57
2022-07-26T20:31:35.984Z,20.58
2022-07-26T20:34:03.625Z,20.59
2022-07-26T20:36:31.677Z,20.52
2022-07-26T20:39:00.226Z,20.44
2022-07-26T20:41:28.067Z,20.36
2022-07-26T20:44:01.464Z,20.29
2022-07-26T20:46:29.214Z,20.22
2022-07-26T20:48:56.914Z,20.12
2022-07-26T20:51:25.102Z,19.95
2022-07-26T20:53:52.626Z,19.80
2022-07-26T20:56:20.550Z,19.64
2022-07-26T20:58:48.213Z,19.45
2022-07-26T21:01:15.780Z,19.32
2022-07-26T21:03:43.587Z,19.20
2022-07-26T21:06:11.088Z,19.18
2022-07-26T21:08:38.575Z,19.15
2022-07-26T21:11:06.193Z,19.14
2022-07-26T21:13:33.719Z,19.15
2022-07-26T21:16:01.530Z,19.11
2022-07-26T21:18:30.699Z,19.07
2022-07-26T21:20:58.623Z,19.01
2022-07-26T21:23:26.228Z,18.95
2022-07-26T21:26:00.533Z,18.89
2022-07-26T21:28:28.545Z,18.85
2022-07-26T21:30:56.251Z,18.83
2022-07-26T21:33:23.924Z,18.79
2022-07-26T21:35:51.759Z,18.75
2022-07-26T21:38:19.441Z,18.74
2022-07-26T21:40:47.287Z,18.73
2022-07-26T21:43:14.948Z,18.73
2022-07-26T21:45:42.606Z,18.71
2022-07-26T21:48:10.209Z,18.70
2022-07-26T21:50:37.753Z,18.73
2022-07-26T21:53:05.303Z,18.78
2022-07-26T21:55:32.914Z,18.84
2022-07-26T21:58:00.503Z,18.87
2022-07-26T22:00:28.007Z,18.85
2022-07-26T22:02:55.773Z,18.84
2022-07-26T22:05:37.391Z,18.80
2022-07-26T22:08:06.977Z,18.80
2022-07-26T22:10:34.748Z,18.80
2022-07-26T22:13:04.201Z,18.83
2022-07-26T22:15:32.971Z,18.84
2022-07-26T22:18:01.183Z,18.85
2022-07-26T22:20:30.831Z,18.83
2022-07-26T22:23:03.862Z,18.80
2022-07-26T22:25:33.664Z,18.78
2022-07-26T22:28:02.469Z,18.76
2022-07-26T22:30:30.435Z,18.76
2022-07-26T22:32:58.904Z,18.73
2022-07-26T22:35:32.259Z,18.66
2022-07-26T22:38:05.033Z,18.65
2022-07-26T22:40:32.938Z,18.62
2022-07-26T22:43:00.695Z,18.60
2022-07-26T22:45:29.739Z,18.59
2022-07-26T22:47:58.000Z,18.55
2022-07-26T22:50:25.777Z,18.51
2022-07-26T22:52:53.527Z,18.47
2022-07-26T22:55:21.494Z,18.40
2022-07-26T22:57:49.122Z,18.33
2022-07-26T23:00:19.146Z,18.28
2022-07-26T23:02:47.797Z,18.24
2022-07-26T23:05:16.641Z,18.17
2022-07-26T23:07:47.158Z,18.08
2022-07-26T23:10:16.828Z,17.96
2022-07-26T23:12:44.723Z,17.83
2022-07-26T23:15:12.790Z,17.72
2022-07-26T23:17:40.448Z,17.66
2022-07-26T23:20:10.530Z,17.65
2022-07-26T23:22:41.119Z,17.66
2022-07-26T23:25:09.929Z,17.63
2022-07-26T23:27:37.561Z,17.56
2022-07-26T23:30:06.730Z,17.44
2022-07-26T23:32:34.249Z,17.38
2022-07-26T23:35:01.902Z,17.36
2022-07-26T23:37:29.496Z,17.32
2022-07-26T23:39:57.177Z,17.28
2022-07-26T23:42:24.679Z,17.23
2022-07-26T23:44:52.184Z,17.24
2022-07-26T23:47:19.698Z,17.24
2022-07-26T23:49:47.384Z,17.26
2022-07-26T23:52:14.919Z,17.24
2022-07-26T23:54:42.455Z,17.22
2022-07-26T23:57:10.269Z,17.19
2022-07-26T23:59:37.964Z,17.19
